createdAt,value
2017-06-02T00:00:40.620Z,44.01
2017-06-02T00:01:42.525Z,43.82
2017-06-02T00:02:44.432Z,43.91
2017-06-02T00:03:46.340Z,44.01
2017-06-02T00:04:48.187Z,44.20
2017-06-02T00:05:50.034Z,43.82
2017-06-02T00:06:51.938Z,43.82
2017-06-02T00:07:53.843Z,43.91
2017-06-02T00:08:55.750Z,43.80
2017-06-02T00:10:09.898Z,43.80
2017-06-02T00:11:11.804Z,43.99
2017-06-02T00:12:13.709Z,44.18
2017-06-02T00:13:15.617Z,44.47
2017-06-02T00:14:17.465Z,44.95
2017-06-02T00:15:19.509Z,44.73
2017-06-02T00:16:21.415Z,45.21
2017-06-02T00:17:23.322Z,45.21
2017-06-02T00:18:25.231Z,45.89
2017-06-02T00:19:39.631Z,45.98
2017-06-02T00:20:41.535Z,46.55
2017-06-02T00:21:43.443Z,46.36
2017-06-02T00:22:45.349Z,46.05
2017-06-02T00:23:47.193Z,46.62
2017-06-02T00:24:49.040Z,46.82
2017-06-02T00:25:50.945Z,46.62
2017-06-02T00:26:52.853Z,46.91
2017-06-02T00:27:54.760Z,47.30
2017-06-02T00:29:08.956Z,47.01
2017-06-02T00:30:10.862Z,47.11
2017-06-02T00:31:12.971Z,47.68
2017-06-02T00:32:14.879Z,47.68
2017-06-02T00:33:16.728Z,47.68
2017-06-02T00:34:18.576Z,47.39
2017-06-02T00:35:20.482Z,47.49
2017-06-02T00:36:22.488Z,47.68
2017-06-02T00:37:24.391Z,47.71
2017-06-02T00:38:38.540Z,47.22
2017-06-02T00:39:40.445Z,46.94
2017-06-02T00:40:42.351Z,46.94
2017-06-02T00:41:44.607Z,46.86
2017-06-02T00:42:46.452Z,46.29
2017-06-02T00:43:48.300Z,45.90
2017-06-02T00:44:50.206Z,45.33
2017-06-02T00:45:52.114Z,45.43
2017-06-02T00:46:54.023Z,45.43
2017-06-02T00:48:08.219Z,44.87
2017-06-02T00:49:10.127Z,44.87
2017-06-02T00:50:12.033Z,44.68
2017-06-02T00:51:13.939Z,44.11
2017-06-02T00:52:16.089Z,43.63
2017-06-02T00:53:17.936Z,43.91
2017-06-02T00:54:19.841Z,43.24
2017-06-02T00:55:21.754Z,43.53
2017-06-02T00:56:23.655Z,43.05
2017-06-02T00:57:37.953Z,42.96
2017-06-02T00:58:39.860Z,43.03
2017-06-02T00:59:41.768Z,43.41
2017-06-02T01:00:43.672Z,43.41
2017-06-02T01:01:45.514Z,43.32
2017-06-02T01:02:47.361Z,43.51
2017-06-02T01:03:49.266Z,43.32
2017-06-02T01:04:51.173Z,43.03
2017-06-02T01:06:04.242Z,43.03
2017-06-02T01:07:06.148Z,43.59
2017-06-02T01:08:08.353Z,43.77
2017-06-02T01:09:10.258Z,44.45
2017-06-02T01:10:12.104Z,44.62
2017-06-02T01:11:13.950Z,44.81
2017-06-02T01:12:15.855Z,45.76
2017-06-02T01:13:17.760Z,45.67
2017-06-02T01:14:19.666Z,45.74
2017-06-02T01:15:33.813Z,46.03
2017-06-02T01:16:35.717Z,46.31
2017-06-02T01:17:37.623Z,46.89
2017-06-02T01:18:39.829Z,46.80
2017-06-02T01:19:41.676Z,46.98
2017-06-02T01:20:43.525Z,47.25
2017-06-02T01:21:45.429Z,47.25
2017-06-02T01:22:47.333Z,47.34
2017-06-02T01:23:49.239Z,47.44
2017-06-02T01:25:03.434Z,47.63
2017-06-02T01:26:05.342Z,47.73
2017-06-02T01:27:07.244Z,48.11
2017-06-02T01:28:09.149Z,48.11
2017-06-02T01:29:11.290Z,48.38
2017-06-02T01:30:13.138Z,48.57
2017-06-02T01:31:15.040Z,48.95
2017-06-02T01:32:16.943Z,48.85
2017-06-02T01:33:18.849Z,49.33
2017-06-02T01:34:32.995Z,49.33
2017-06-02T01:35:34.900Z,49.23
2017-06-02T01:36:36.806Z,49.33
2017-06-02T01:37:38.710Z,49.23
2017-06-02T01:38:40.555Z,49.43
2017-06-02T01:39:42.401Z,49.62
2017-06-02T01:40:44.309Z,49.71
2017-06-02T01:41:46.211Z,49.43
2017-06-02T01:42:48.116Z,50.00
2017-06-02T01:44:02.562Z,50.29
2017-06-02T01:45:05.444Z,50.29
2017-06-02T01:46:07.349Z,50.57
2017-06-02T01:47:09.256Z,51.15
2017-06-02T01:48:11.097Z,51.05
2017-06-02T01:49:12.943Z,51.15
2017-06-02T01:50:14.946Z,50.50
2017-06-02T01:51:16.850Z,49.93
2017-06-02T01:52:18.757Z,49.74
2017-06-02T01:53:32.910Z,49.45
2017-06-02T01:54:34.808Z,49.52
2017-06-02T01:55:37.114Z,49.62
2017-06-02T01:56:39.021Z,50.19
2017-06-02T01:57:40.865Z,50.29
2017-06-02T01:58:42.712Z,50.29
2017-06-02T01:59:44.616Z,50.19
2017-06-02T02:00:46.521Z,50.29
2017-06-02T02:01:48.426Z,50.29
2017-06-02T02:03:02.622Z,50.57
2017-06-02T02:04:04.527Z,50.09
2017-06-02T02:05:06.431Z,50.64
2017-06-02T02:06:08.333Z,50.35
2017-06-02T02:07:10.177Z,50.38
2017-06-02T02:08:12.022Z,50.35
2017-06-02T02:09:13.926Z,50.45
2017-06-02T02:10:15.831Z,50.64
2017-06-02T02:11:18.036Z,50.74
2017-06-02T02:12:32.181Z,51.21
2017-06-02T02:13:34.084Z,50.84
2017-06-02T02:14:35.990Z,50.74
2017-06-02T02:15:37.896Z,50.84
2017-06-02T02:16:39.739Z,50.74
2017-06-02T02:17:41.585Z,50.74
2017-06-02T02:18:43.492Z,50.64
2017-06-02T02:19:45.398Z,50.93
2017-06-02T02:20:47.301Z,51.21
2017-06-02T02:22:01.650Z,50.93
2017-06-02T02:23:03.554Z,50.93
2017-06-02T02:24:05.460Z,50.55
2017-06-02T02:25:07.365Z,50.55
2017-06-02T02:26:09.209Z,50.55
2017-06-02T02:27:11.156Z,50.64
2017-06-02T02:28:13.063Z,50.45
2017-06-02T02:29:14.969Z,50.26
2017-06-02T02:30:16.875Z,50.55
2017-06-02T02:31:31.271Z,50.84
2017-06-02T02:32:33.178Z,50.93
2017-06-02T02:33:35.084Z,51.03
2017-06-02T02:34:36.991Z,51.12
2017-06-02T02:35:38.898Z,51.12
2017-06-02T02:36:40.743Z,51.03
2017-06-02T02:37:42.650Z,51.12
2017-06-02T02:38:44.558Z,50.93
2017-06-02T02:39:46.468Z,51.12
2017-06-02T02:41:00.619Z,51.12
2017-06-02T02:42:02.900Z,51.21
2017-06-02T02:43:05.065Z,51.50
2017-06-02T02:44:06.973Z,51.12
2017-06-02T02:45:08.820Z,51.60
2017-06-02T02:46:10.788Z,51.21
2017-06-02T02:47:13.058Z,50.93
2017-06-02T02:48:15.594Z,51.03
2017-06-02T02:49:18.219Z,51.12
2017-06-02T02:50:32.399Z,50.74
2017-06-02T02:51:34.309Z,51.31
2017-06-02T02:52:36.219Z,51.41
2017-06-02T02:53:38.430Z,51.03
2017-06-02T02:54:40.279Z,51.50
2017-06-02T02:55:42.128Z,51.00
2017-06-02T02:56:44.036Z,51.12
2017-06-02T02:57:45.945Z,51.09
2017-06-02T02:58:47.854Z,51.12
2017-06-02T03:00:02.050Z,50.93
2017-06-02T03:01:03.960Z,51.09
2017-06-02T03:02:05.868Z,50.64
2017-06-02T03:03:07.776Z,50.45
2017-06-02T03:04:09.627Z,50.16
2017-06-02T03:05:11.474Z,50.26
2017-06-02T03:06:13.384Z,49.78
2017-06-02T03:07:15.298Z,49.90
2017-06-02T03:08:17.207Z,49.62
2017-06-02T03:09:31.458Z,48.95
2017-06-02T03:10:33.367Z,48.78
2017-06-02T03:11:35.277Z,47.92
2017-06-02T03:12:37.189Z,48.04
2017-06-02T03:13:39.041Z,47.56
2017-06-02T03:14:41.090Z,46.72
2017-06-02T03:15:43.000Z,46.05
2017-06-02T03:16:44.913Z,45.38
2017-06-02T03:17:46.823Z,44.73
2017-06-02T03:19:00.978Z,44.54
2017-06-02T03:20:02.888Z,43.70
2017-06-02T03:21:04.796Z,43.23
2017-06-02T03:22:06.710Z,42.96
2017-06-02T03:23:08.563Z,42.29
2017-06-02T03:24:10.415Z,40.87
2017-06-02T03:25:12.426Z,40.58
2017-06-02T03:26:14.336Z,40.00
2017-06-02T03:27:16.250Z,39.45
2017-06-02T03:28:30.454Z,39.16
2017-06-02T03:29:32.369Z,38.78
2017-06-02T03:30:34.582Z,38.68
2017-06-02T03:31:36.493Z,38.12
2017-06-02T03:32:38.346Z,38.32
2017-06-02T03:33:40.201Z,37.84
2017-06-02T03:34:42.113Z,37.64
2017-06-02T03:35:44.026Z,37.27
2017-06-02T03:36:45.941Z,36.90
2017-06-02T03:38:00.104Z,36.99
2017-06-02T03:39:02.012Z,36.80
2017-06-02T03:40:04.130Z,36.62
2017-06-02T03:41:06.343Z,36.43
2017-06-02T03:42:08.199Z,35.66
2017-06-02T03:43:10.050Z,35.58
2017-06-02T03:44:11.961Z,35.39
2017-06-02T03:45:13.877Z,34.35
2017-06-02T03:46:15.891Z,34.16
2017-06-02T03:47:30.048Z,34.08
2017-06-02T03:48:31.959Z,33.50
2017-06-02T03:49:33.874Z,33.31
2017-06-02T03:50:35.787Z,33.12
2017-06-02T03:51:37.643Z,32.75
2017-06-02T03:52:39.498Z,32.36
2017-06-02T03:53:41.410Z,31.69
2017-06-02T03:54:43.328Z,31.32
2017-06-02T03:55:45.246Z,30.74
2017-06-02T03:56:59.401Z,30.37
2017-06-02T03:58:01.314Z,30.18
2017-06-02T03:59:03.229Z,29.71
2017-06-02T04:00:05.145Z,29.32
2017-06-02T04:01:07.000Z,28.95
2017-06-02T04:02:08.854Z,28.47
2017-06-02T04:03:10.774Z,28.39
2017-06-02T04:04:12.690Z,28.19
2017-06-02T04:05:14.605Z,27.71
2017-06-02T04:06:28.862Z,27.71
2017-06-02T04:07:30.774Z,27.53
2017-06-02T04:08:32.691Z,27.62
2017-06-02T04:09:34.609Z,27.34
2017-06-02T04:10:36.467Z,27.53
2017-06-02T04:11:38.322Z,27.06
2017-06-02T04:12:40.290Z,26.77
2017-06-02T04:13:42.207Z,26.59
2017-06-02T04:14:44.127Z,26.50
2017-06-02T04:15:58.337Z,26.50
2017-06-02T04:17:00.255Z,26.01
2017-06-02T04:18:02.474Z,25.72
2017-06-02T04:19:04.391Z,25.43
2017-06-02T04:20:06.250Z,25.34
2017-06-02T04:21:08.107Z,25.43
2017-06-02T04:22:10.026Z,25.04
2017-06-02T04:23:12.144Z,25.04
2017-06-02T04:24:14.062Z,25.04
2017-06-02T04:25:28.273Z,25.04
2017-06-02T04:26:30.191Z,24.37
2017-06-02T04:27:32.110Z,25.15
2017-06-02T04:28:34.130Z,25.15
2017-06-02T04:29:35.985Z,25.15
2017-06-02T04:30:37.842Z,25.05
2017-06-02T04:31:39.761Z,25.07
2017-06-02T04:32:41.681Z,24.49
2017-06-02T04:33:43.898Z,24.88
2017-06-02T04:34:58.110Z,24.30
2017-06-02T04:36:00.028Z,24.22
2017-06-02T04:37:01.948Z,23.83
2017-06-02T04:38:03.867Z,23.55
2017-06-02T04:39:05.726Z,23.26
2017-06-02T04:40:07.587Z,22.89
2017-06-02T04:41:09.505Z,22.79
2017-06-02T04:42:11.425Z,22.90
2017-06-02T04:43:13.346Z,22.71
2017-06-02T04:44:27.864Z,22.80
2017-06-02T04:45:29.776Z,22.33
2017-06-02T04:46:31.695Z,22.33
2017-06-02T04:47:33.615Z,22.03
2017-06-02T04:48:35.475Z,21.65
2017-06-02T04:49:37.436Z,21.56
2017-06-02T04:50:39.358Z,21.56
2017-06-02T04:51:41.277Z,21.37
2017-06-02T04:52:43.197Z,21.37
2017-06-02T04:53:57.361Z,21.37
2017-06-02T04:54:59.279Z,21.47
2017-06-02T04:56:01.201Z,21.37
2017-06-02T04:57:03.119Z,21.37
2017-06-02T04:58:04.980Z,21.09
2017-06-02T04:59:06.839Z,21.77
2017-06-02T05:00:09.060Z,21.18
2017-06-02T05:01:10.978Z,21.37
2017-06-02T05:02:12.899Z,21.37
2017-06-02T05:03:27.113Z,21.18
2017-06-02T05:04:29.033Z,20.60
2017-06-02T05:05:31.055Z,20.42
2017-06-02T05:06:32.972Z,20.61
2017-06-02T05:07:34.828Z,20.22
2017-06-02T05:08:36.688Z,20.42
2017-06-02T05:09:38.607Z,20.32
2017-06-02T05:10:40.526Z,20.32
2017-06-02T05:11:42.443Z,20.61
2017-06-02T05:12:56.606Z,20.50
2017-06-02T05:13:58.522Z,20.40
2017-06-02T05:15:00.441Z,20.79
2017-06-02T05:16:02.656Z,20.79
2017-06-02T05:17:04.514Z,21.17
2017-06-02T05:18:06.372Z,21.08
2017-06-02T05:19:08.293Z,21.08
2017-06-02T05:20:10.207Z,21.17
2017-06-02T05:21:12.124Z,21.36
2017-06-02T05:22:26.337Z,21.45
2017-06-02T05:23:28.251Z,21.84
2017-06-02T05:24:30.168Z,21.65
2017-06-02T05:25:32.086Z,21.55
2017-06-02T05:26:34.146Z,22.03
2017-06-02T05:27:36.002Z,21.84
2017-06-02T05:28:37.921Z,22.13
2017-06-02T05:29:39.838Z,22.81
2017-06-02T05:30:41.755Z,23.38
2017-06-02T05:31:56.015Z,23.68
2017-06-02T05:32:57.930Z,23.95
2017-06-02T05:33:59.849Z,23.76
2017-06-02T05:35:01.765Z,24.04
2017-06-02T05:36:03.621Z,24.41
2017-06-02T05:37:05.474Z,24.71
2017-06-02T05:38:07.392Z,25.47
2017-06-02T05:39:09.307Z,25.74
2017-06-02T05:40:11.222Z,26.31
2017-06-02T05:41:25.429Z,27.08
2017-06-02T05:42:27.346Z,27.73
2017-06-02T05:43:29.260Z,28.30
2017-06-02T05:44:31.176Z,28.78
2017-06-02T05:45:33.033Z,29.56
2017-06-02T05:46:34.889Z,30.03
2017-06-02T05:47:37.005Z,30.22
2017-06-02T05:48:38.922Z,30.49
2017-06-02T05:49:40.836Z,31.27
2017-06-02T05:50:54.994Z,31.85
2017-06-02T05:51:56.909Z,32.31
2017-06-02T05:52:58.826Z,32.70
2017-06-02T05:54:00.746Z,33.07
2017-06-02T05:55:02.603Z,33.36
2017-06-02T05:56:04.457Z,33.74
2017-06-02T05:57:06.373Z,34.03
2017-06-02T05:58:08.551Z,34.22
2017-06-02T05:59:10.405Z,35.08
2017-06-02T06:00:24.599Z,35.17
2017-06-02T06:01:26.515Z,35.56
2017-06-02T06:02:28.425Z,36.11
2017-06-02T06:03:30.338Z,36.60
2017-06-02T06:04:32.194Z,36.41
2017-06-02T06:05:34.046Z,36.58
2017-06-02T06:06:35.965Z,36.77
2017-06-02T06:07:37.879Z,37.06
2017-06-02T06:08:40.095Z,37.06
2017-06-02T06:09:54.299Z,36.87
2017-06-02T06:10:56.214Z,36.97
2017-06-02T06:11:58.126Z,36.97
2017-06-02T06:13:00.041Z,37.64
2017-06-02T06:14:01.897Z,38.02
2017-06-02T06:15:03.752Z,37.83
2017-06-02T06:16:05.670Z,37.83
2017-06-02T06:17:07.583Z,38.02
2017-06-02T06:18:09.497Z,38.33
2017-06-02T06:19:23.654Z,38.04
2017-06-02T06:20:25.567Z,38.24
2017-06-02T06:21:27.484Z,38.33
2017-06-02T06:22:29.401Z,38.43
2017-06-02T06:23:31.255Z,38.43
2017-06-02T06:24:33.309Z,38.53
2017-06-02T06:25:35.223Z,38.62
2017-06-02T06:26:37.138Z,38.81
2017-06-02T06:27:39.057Z,39.11
2017-06-02T06:28:53.212Z,39.01
2017-06-02T06:29:55.125Z,38.91
2017-06-02T06:30:57.037Z,38.72
2017-06-02T06:31:58.953Z,38.43
2017-06-02T06:33:00.807Z,38.43
2017-06-02T06:34:02.659Z,38.24
2017-06-02T06:35:04.773Z,38.43
2017-06-02T06:36:06.687Z,38.35
2017-06-02T06:37:08.607Z,38.43
2017-06-02T06:38:22.764Z,38.43
2017-06-02T06:39:24.679Z,37.87
2017-06-02T06:40:26.693Z,37.87
2017-06-02T06:41:28.607Z,37.68
2017-06-02T06:42:30.461Z,37.66
2017-06-02T06:43:32.316Z,36.99
2017-06-02T06:44:34.231Z,36.79
2017-06-02T06:45:36.446Z,36.61
2017-06-02T06:46:38.363Z,36.31
2017-06-02T06:47:52.520Z,36.33
2017-06-02T06:48:54.433Z,36.43
2017-06-02T06:49:56.348Z,36.23
2017-06-02T06:50:58.263Z,36.31
2017-06-02T06:52:00.118Z,36.21
2017-06-02T06:53:01.971Z,36.02
2017-06-02T06:54:03.889Z,36.31
2017-06-02T06:55:05.805Z,36.31
2017-06-02T06:56:07.916Z,35.93
2017-06-02T06:57:22.071Z,35.25
2017-06-02T06:58:23.984Z,35.46
2017-06-02T06:59:25.896Z,35.08
2017-06-02T07:00:27.812Z,34.88
2017-06-02T07:01:30.019Z,34.38
2017-06-02T07:02:31.871Z,34.29
2017-06-02T07:03:33.785Z,34.09
2017-06-02T07:04:35.699Z,34.29
2017-06-02T07:05:37.614Z,34.09
2017-06-02T07:06:51.772Z,34.09
2017-06-02T07:07:53.686Z,34.48
2017-06-02T07:08:55.603Z,34.48
2017-06-02T07:09:57.517Z,34.29
2017-06-02T07:10:59.373Z,34.96
2017-06-02T07:12:01.524Z,34.69
2017-06-02T07:13:03.441Z,34.40
2017-06-02T07:14:05.355Z,34.01
2017-06-02T07:15:07.268Z,34.11
2017-06-02T07:16:21.471Z,33.63
2017-06-02T07:17:23.390Z,33.74
2017-06-02T07:18:25.306Z,33.65
2017-06-02T07:19:27.221Z,33.55
2017-06-02T07:20:29.075Z,33.26
2017-06-02T07:21:30.934Z,33.26
2017-06-02T07:22:32.944Z,33.07
2017-06-02T07:23:34.857Z,32.97
2017-06-02T07:24:36.770Z,32.97
2017-06-02T07:25:50.928Z,32.39
2017-06-02T07:26:52.842Z,32.10
2017-06-02T07:27:54.955Z,32.10
2017-06-02T07:28:56.870Z,31.72
2017-06-02T07:29:58.723Z,30.94
2017-06-02T07:31:00.576Z,30.56
2017-06-02T07:32:02.494Z,30.94
2017-06-02T07:33:04.406Z,31.06
2017-06-02T07:34:06.322Z,30.77
2017-06-02T07:35:20.481Z,30.38
2017-06-02T07:36:22.394Z,30.29
2017-06-02T07:37:24.311Z,29.90
2017-06-02T07:38:26.328Z,29.61
2017-06-02T07:39:28.183Z,29.61
2017-06-02T07:40:30.037Z,29.03
2017-06-02T07:41:31.953Z,29.63
2017-06-02T07:42:33.867Z,30.01
2017-06-02T07:43:35.783Z,28.85
2017-06-02T07:44:49.989Z,28.18
2017-06-02T07:45:51.904Z,27.60
2017-06-02T07:46:53.819Z,27.70
2017-06-02T07:47:55.734Z,28.47
2017-06-02T07:48:57.592Z,28.66
2017-06-02T07:49:59.447Z,28.37
2017-06-02T07:51:01.298Z,28.08
2017-06-02T07:52:03.155Z,28.66
2017-06-02T07:53:05.014Z,28.58
2017-06-02T07:54:19.214Z,28.77
2017-06-02T07:55:21.129Z,27.61
2017-06-02T07:56:23.043Z,26.45
2017-06-02T07:57:24.959Z,26.34
2017-06-02T07:58:26.815Z,25.76
2017-06-02T07:59:28.769Z,25.76
2017-06-02T08:00:30.684Z,26.06
2017-06-02T08:01:32.599Z,25.38
2017-06-02T08:02:34.515Z,25.56
2017-06-02T08:03:49.022Z,25.46
2017-06-02T08:04:50.937Z,26.64
2017-06-02T08:05:52.853Z,27.02
2017-06-02T08:06:54.768Z,26.44
2017-06-02T08:07:56.623Z,26.44
2017-06-02T08:08:58.482Z,26.92
2017-06-02T08:10:00.397Z,26.44
2017-06-02T08:11:02.314Z,26.65
2017-06-02T08:12:04.229Z,27.13
2017-06-02T08:13:18.435Z,27.42
2017-06-02T08:14:20.351Z,27.24
2017-06-02T08:15:22.517Z,27.34
2017-06-02T08:16:24.433Z,27.44
2017-06-02T08:17:26.288Z,27.53
2017-06-02T08:18:28.146Z,26.46
2017-06-02T08:19:30.062Z,25.21
2017-06-02T08:20:31.975Z,24.92
2017-06-02T08:21:33.892Z,25.02
2017-06-02T08:22:48.098Z,24.34
2017-06-02T08:23:50.015Z,24.54
2017-06-02T08:24:51.929Z,25.02
2017-06-02T08:25:53.845Z,25.31
2017-06-02T08:26:55.703Z,25.40
2017-06-02T08:27:57.557Z,25.89
2017-06-02T08:28:59.471Z,25.89
2017-06-02T08:30:01.386Z,24.54
2017-06-02T08:31:03.299Z,23.49
2017-06-02T08:32:17.457Z,23.28
2017-06-02T08:33:19.372Z,23.38
2017-06-02T08:34:21.286Z,23.96
2017-06-02T08:35:23.202Z,23.76
2017-06-02T08:36:25.312Z,23.28
2017-06-02T08:37:27.163Z,22.99
2017-06-02T08:38:29.077Z,22.60
2017-06-02T08:39:30.994Z,22.60
2017-06-02T08:40:32.914Z,22.60
2017-06-02T08:41:47.071Z,22.60
2017-06-02T08:42:48.986Z,22.60
2017-06-02T08:43:50.901Z,22.99
2017-06-02T08:44:52.817Z,23.57
2017-06-02T08:45:54.672Z,23.96
2017-06-02T08:46:56.528Z,24.24
2017-06-02T08:47:58.447Z,24.26
2017-06-02T08:49:00.364Z,24.45
2017-06-02T08:50:02.273Z,24.35
2017-06-02T08:51:16.530Z,23.87
2017-06-02T08:52:18.444Z,23.21
2017-06-02T08:53:20.362Z,23.30
2017-06-02T08:54:22.276Z,23.40
2017-06-02T08:55:24.134Z,23.30
2017-06-02T08:56:25.990Z,23.11
2017-06-02T08:57:28.103Z,23.69
2017-06-02T08:58:30.015Z,23.50
2017-06-02T08:59:31.931Z,23.69
2017-06-02T09:00:46.088Z,23.60
2017-06-02T09:01:48.002Z,23.99
2017-06-02T09:02:49.919Z,23.50
2017-06-02T09:03:51.834Z,23.80
2017-06-02T09:04:53.690Z,23.80
2017-06-02T09:05:55.543Z,23.02
2017-06-02T09:06:57.457Z,22.74
2017-06-02T09:07:59.572Z,23.02
2017-06-02T09:09:01.490Z,23.21
2017-06-02T09:10:15.650Z,23.11
2017-06-02T09:11:17.565Z,22.72
2017-06-02T09:12:19.483Z,22.71
2017-06-02T09:13:21.396Z,22.91
2017-06-02T09:14:23.254Z,23.00
2017-06-02T09:15:25.108Z,23.10
2017-06-02T09:16:27.025Z,23.01
2017-06-02T09:17:28.942Z,23.21
2017-06-02T09:18:31.061Z,23.59
2017-06-02T09:19:45.220Z,23.88
2017-06-02T09:20:47.135Z,24.08
2017-06-02T09:21:49.051Z,24.26
2017-06-02T09:22:50.967Z,24.27
2017-06-02T09:23:52.824Z,24.37
2017-06-02T09:24:54.678Z,24.37
2017-06-02T09:25:56.595Z,24.08
2017-06-02T09:26:58.517Z,23.90
2017-06-02T09:28:00.429Z,23.90
2017-06-02T09:29:14.583Z,24.38
2017-06-02T09:30:16.497Z,24.18
2017-06-02T09:31:18.409Z,23.99
2017-06-02T09:32:20.326Z,23.90
2017-06-02T09:33:22.182Z,23.90
2017-06-02T09:34:24.037Z,23.90
2017-06-02T09:35:25.953Z,24.28
2017-06-02T09:36:27.870Z,24.28
2017-06-02T09:37:29.787Z,24.38
2017-06-02T09:38:43.991Z,24.57
2017-06-02T09:39:45.908Z,24.09
2017-06-02T09:40:47.830Z,23.60
2017-06-02T09:41:49.740Z,23.70
2017-06-02T09:42:51.597Z,23.90
2017-06-02T09:43:53.458Z,24.17
2017-06-02T09:44:55.469Z,24.37
2017-06-02T09:45:57.383Z,24.08
2017-06-02T09:46:59.299Z,24.27
2017-06-02T09:48:13.459Z,23.79
2017-06-02T09:49:15.373Z,23.60
2017-06-02T09:50:17.289Z,23.70
2017-06-02T09:51:19.206Z,23.99
2017-06-02T09:52:21.062Z,24.28
2017-06-02T09:53:22.916Z,23.99
2017-06-02T09:54:24.834Z,24.01
2017-06-02T09:55:26.947Z,24.39
2017-06-02T09:56:28.866Z,24.49
2017-06-02T09:57:43.077Z,24.78
2017-06-02T09:58:44.992Z,25.16
2017-06-02T09:59:46.908Z,25.36
2017-06-02T10:00:48.826Z,25.46
2017-06-02T10:01:50.684Z,25.55
2017-06-02T10:02:52.540Z,25.36
2017-06-02T10:03:54.455Z,25.46
2017-06-02T10:04:56.371Z,25.16
2017-06-02T10:05:58.490Z,25.16
2017-06-02T10:07:12.646Z,25.16
2017-06-02T10:08:14.560Z,24.58
2017-06-02T10:09:16.478Z,24.97
2017-06-02T10:10:18.395Z,25.15
2017-06-02T10:11:20.449Z,24.49
2017-06-02T10:12:22.307Z,24.67
2017-06-02T10:13:24.224Z,25.05
2017-06-02T10:14:26.140Z,25.05
2017-06-02T10:15:28.055Z,24.96
2017-06-02T10:16:42.466Z,25.15
2017-06-02T10:17:44.381Z,25.16
2017-06-02T10:18:46.297Z,25.07
2017-06-02T10:19:48.214Z,24.97
2017-06-02T10:20:50.073Z,25.18
2017-06-02T10:21:52.229Z,24.79
2017-06-02T10:22:54.144Z,24.40
2017-06-02T10:23:56.059Z,24.21
2017-06-02T10:24:57.973Z,23.92
2017-06-02T10:26:12.134Z,23.92
2017-06-02T10:27:14.048Z,24.02
2017-06-02T10:28:15.965Z,24.11
2017-06-02T10:29:17.882Z,24.30
2017-06-02T10:30:19.742Z,24.21
2017-06-02T10:31:21.599Z,24.39
2017-06-02T10:32:23.517Z,24.58
2017-06-02T10:33:25.433Z,25.07
2017-06-02T10:34:27.349Z,25.16
2017-06-02T10:35:41.505Z,25.85
2017-06-02T10:36:43.421Z,25.27
2017-06-02T10:37:45.338Z,25.95
2017-06-02T10:38:47.255Z,26.63
2017-06-02T10:39:49.113Z,25.94
2017-06-02T10:40:50.971Z,25.94
2017-06-02T10:41:52.888Z,25.55
2017-06-02T10:42:54.805Z,25.55
2017-06-02T10:43:56.720Z,25.94
2017-06-02T10:45:10.881Z,25.46
2017-06-02T10:46:12.801Z,25.46
2017-06-02T10:47:14.719Z,25.65
2017-06-02T10:48:16.634Z,25.56
2017-06-02T10:49:18.492Z,26.14
2017-06-02T10:50:20.350Z,26.62
2017-06-02T10:51:22.266Z,27.20
2017-06-02T10:52:24.183Z,27.58
2017-06-02T10:53:26.099Z,26.62
2017-06-02T10:54:40.264Z,27.10
2017-06-02T10:55:42.180Z,27.29
2017-06-02T10:56:44.097Z,27.00
2017-06-02T10:57:46.011Z,26.90
2017-06-02T10:58:47.971Z,26.72
2017-06-02T10:59:49.826Z,27.58
2017-06-02T11:00:51.742Z,27.58
2017-06-02T11:01:53.658Z,27.21
2017-06-02T11:02:55.577Z,27.31
2017-06-02T11:04:10.034Z,27.31
2017-06-02T11:05:11.949Z,27.32
2017-06-02T11:06:13.863Z,27.40
2017-06-02T11:07:15.781Z,27.61
2017-06-02T11:08:17.641Z,27.32
2017-06-02T11:09:19.553Z,28.29
2017-06-02T11:10:21.466Z,27.81
2017-06-02T11:11:23.380Z,28.28
2017-06-02T11:12:25.259Z,27.89
2017-06-02T11:13:39.468Z,28.08
2017-06-02T11:14:41.387Z,27.98
2017-06-02T11:15:43.306Z,28.26
2017-06-02T11:16:45.226Z,27.97
2017-06-02T11:17:47.083Z,27.87
2017-06-02T11:18:48.942Z,27.87
2017-06-02T11:19:50.857Z,27.97
2017-06-02T11:20:52.776Z,28.36
2017-06-02T11:21:54.693Z,28.26
2017-06-02T11:23:08.921Z,28.55
2017-06-02T11:24:10.839Z,28.26
2017-06-02T11:25:12.805Z,28.36
2017-06-02T11:26:14.722Z,28.08
2017-06-02T11:27:16.574Z,27.89
2017-06-02T11:28:18.434Z,27.98
2017-06-02T11:29:20.349Z,28.28
2017-06-02T11:30:22.265Z,28.08
2017-06-02T11:31:24.183Z,27.31
2017-06-02T11:32:38.394Z,27.79
2017-06-02T11:33:40.312Z,27.89
2017-06-02T11:34:42.228Z,27.79
2017-06-02T11:35:44.145Z,27.70
2017-06-02T11:36:46.003Z,27.70
2017-06-02T11:37:47.860Z,27.60
2017-06-02T11:38:49.778Z,27.70
2017-06-02T11:39:51.696Z,27.98
2017-06-02T11:40:53.914Z,27.79
2017-06-02T11:42:08.122Z,27.60
2017-06-02T11:43:10.039Z,27.61
2017-06-02T11:44:11.954Z,27.42
2017-06-02T11:45:13.873Z,27.01
2017-06-02T11:46:15.730Z,26.63
2017-06-02T11:47:17.587Z,26.74
2017-06-02T11:48:19.504Z,27.42
2017-06-02T11:49:21.420Z,27.61
2017-06-02T11:50:23.335Z,27.32
2017-06-02T11:51:37.698Z,27.71
2017-06-02T11:52:39.614Z,27.40
2017-06-02T11:53:41.533Z,28.47
2017-06-02T11:54:43.450Z,28.75
2017-06-02T11:55:45.306Z,28.55
2017-06-02T11:56:47.368Z,28.75
2017-06-02T11:57:49.278Z,28.07
2017-06-02T11:58:51.196Z,28.26
2017-06-02T11:59:53.113Z,28.45
2017-06-02T12:01:07.280Z,28.07
2017-06-02T12:02:09.191Z,28.65
2017-06-02T12:03:11.109Z,28.85
2017-06-02T12:04:13.032Z,29.03
2017-06-02T12:05:14.883Z,28.66
2017-06-02T12:06:16.739Z,28.96
2017-06-02T12:07:18.857Z,28.86
2017-06-02T12:08:20.782Z,29.16
2017-06-02T12:09:22.680Z,28.58
2017-06-02T12:10:36.841Z,28.30
2017-06-02T12:11:38.756Z,27.82
2017-06-02T12:12:40.673Z,27.62
2017-06-02T12:13:42.590Z,28.03
2017-06-02T12:14:44.449Z,27.73
2017-06-02T12:15:46.301Z,27.54
2017-06-02T12:16:48.814Z,27.64
2017-06-02T12:17:50.716Z,27.25
2017-06-02T12:18:52.594Z,26.86
2017-06-02T12:20:06.757Z,26.48
2017-06-02T12:21:08.674Z,26.48
2017-06-02T12:22:10.591Z,26.48
2017-06-02T12:23:12.709Z,26.57
2017-06-02T12:24:14.564Z,26.37
2017-06-02T12:25:16.423Z,26.17
2017-06-02T12:26:18.341Z,25.88
2017-06-02T12:27:20.259Z,25.59
2017-06-02T12:28:22.478Z,25.40
2017-06-02T12:29:36.643Z,25.68
2017-06-02T12:30:39.003Z,26.76
2017-06-02T12:31:40.936Z,25.49
2017-06-02T12:32:42.854Z,25.30
2017-06-02T12:33:44.708Z,25.67
2017-06-02T12:34:46.566Z,26.06
2017-06-02T12:35:48.485Z,26.26
2017-06-02T12:36:50.404Z,26.16
2017-06-02T12:37:52.534Z,26.26
2017-06-02T12:39:06.796Z,26.26
2017-06-02T12:40:09.237Z,26.16
2017-06-02T12:41:11.255Z,26.64
2017-06-02T12:42:13.175Z,26.35
2017-06-02T12:43:15.032Z,26.54
2017-06-02T12:44:16.888Z,26.84
2017-06-02T12:45:18.806Z,26.73
2017-06-02T12:46:20.723Z,27.01
2017-06-02T12:47:22.642Z,26.53
2017-06-02T12:48:37.105Z,26.16
2017-06-02T12:49:39.023Z,25.96
2017-06-02T12:50:40.939Z,26.06
2017-06-02T12:51:42.856Z,26.26
2017-06-02T12:52:44.715Z,25.98
2017-06-02T12:53:46.575Z,25.98
2017-06-02T12:54:48.592Z,25.78
2017-06-02T12:55:50.507Z,25.49
2017-06-02T12:56:52.423Z,26.37
2017-06-02T12:58:06.584Z,27.14
2017-06-02T12:59:08.501Z,27.04
2017-06-02T13:00:10.421Z,26.65
2017-06-02T13:01:12.336Z,25.88
2017-06-02T13:02:14.197Z,26.56
2017-06-02T13:03:16.049Z,26.46
2017-06-02T13:04:17.991Z,26.65
2017-06-02T13:05:19.960Z,25.88
2017-06-02T13:06:21.879Z,26.75
2017-06-02T13:07:36.039Z,26.95
2017-06-02T13:08:37.956Z,25.78
2017-06-02T13:09:39.874Z,25.88
2017-06-02T13:10:41.792Z,25.78
2017-06-02T13:11:43.648Z,25.59
2017-06-02T13:12:45.504Z,26.46
2017-06-02T13:13:47.423Z,26.74
2017-06-02T13:14:49.344Z,26.85
2017-06-02T13:15:51.361Z,26.75
2017-06-02T13:17:05.525Z,26.46
2017-06-02T13:18:07.444Z,26.67
2017-06-02T13:19:09.360Z,26.57
2017-06-02T13:20:11.277Z,26.28
2017-06-02T13:21:13.136Z,26.48
2017-06-02T13:22:14.993Z,27.06
2017-06-02T13:23:16.912Z,27.45
2017-06-02T13:24:18.830Z,27.73
2017-06-02T13:25:20.750Z,28.02
2017-06-02T13:26:35.159Z,27.62
2017-06-02T13:27:37.077Z,27.82
2017-06-02T13:28:38.997Z,28.30
2017-06-02T13:29:40.918Z,28.68
2017-06-02T13:30:42.774Z,28.97
2017-06-02T13:31:44.633Z,28.89
2017-06-02T13:32:46.552Z,28.79
2017-06-02T13:33:48.468Z,28.09
2017-06-02T13:34:50.385Z,28.19